createdAt,value
2018-02-13T00:00:45.769Z,18.83
2018-02-13T00:03:14.073Z,19.00
2018-02-13T00:05:42.365Z,19.47
2018-02-13T00:08:10.798Z,19.80
2018-02-13T00:10:39.099Z,17.83
2018-02-13T00:13:07.421Z,18.50
2018-02-13T00:15:35.709Z,19.60
2018-02-13T00:18:03.997Z,21.33
2018-02-13T00:20:32.290Z,19.23
2018-02-13T00:23:02.349Z,18.00
2018-02-13T00:25:30.644Z,18.33
2018-02-13T00:27:58.954Z,18.77
2018-02-13T00:30:27.268Z,18.67
2018-02-13T00:32:55.587Z,19.03
2018-02-13T00:35:23.877Z,18.70
2018-02-13T00:37:52.165Z,17.80
2018-02-13T00:40:20.467Z,18.60
2018-02-13T00:42:48.779Z,19.33
2018-02-13T00:45:17.070Z,19.13
2018-02-13T00:47:45.377Z,18.87
2018-02-13T00:50:13.686Z,19.17
2018-02-13T00:52:41.978Z,18.90
2018-02-13T00:55:10.290Z,22.80
2018-02-13T00:57:38.604Z,20.13
2018-02-13T01:00:06.897Z,18.47
2018-02-13T01:02:35.208Z,19.37
2018-02-13T01:05:03.511Z,20.53
2018-02-13T01:07:31.815Z,18.00
2018-02-13T01:10:00.100Z,19.23
2018-02-13T01:12:28.406Z,18.73
2018-02-13T01:14:56.711Z,18.83
2018-02-13T01:17:24.998Z,17.57
2018-02-13T01:19:53.301Z,17.47
2018-02-13T01:22:21.589Z,17.20
2018-02-13T01:24:49.887Z,16.83
2018-02-13T01:27:18.218Z,17.50
2018-02-13T01:29:46.511Z,18.27
2018-02-13T01:32:14.800Z,16.83
2018-02-13T01:34:43.099Z,17.53
2018-02-13T01:37:11.399Z,18.37
2018-02-13T01:39:39.693Z,16.87
2018-02-13T01:42:07.987Z,16.50
2018-02-13T01:44:36.287Z,16.23
2018-02-13T01:47:04.588Z,16.13
2018-02-13T01:49:32.909Z,17.73
2018-02-13T01:52:01.209Z,19.67
2018-02-13T01:54:29.505Z,17.80
2018-02-13T01:56:57.802Z,16.43
2018-02-13T01:59:26.089Z,17.40
2018-02-13T02:01:54.388Z,17.63
2018-02-13T02:04:22.811Z,17.60
2018-02-13T02:06:51.144Z,17.93
2018-02-13T02:09:19.442Z,16.70
2018-02-13T02:11:47.748Z,18.93
2018-02-13T02:14:16.059Z,15.97
2018-02-13T02:16:44.343Z,15.53
2018-02-13T02:19:12.643Z,16.77
2018-02-13T02:21:40.956Z,16.43
2018-02-13T02:24:09.264Z,17.13
2018-02-13T02:26:37.558Z,16.13
2018-02-13T02:29:06.038Z,15.87
2018-02-13T02:31:34.342Z,17.07
2018-02-13T02:34:02.639Z,16.27
2018-02-13T02:36:30.925Z,15.67
2018-02-13T02:38:59.223Z,15.53
2018-02-13T02:41:27.514Z,16.67
2018-02-13T02:43:56.302Z,16.87
2018-02-13T02:46:24.641Z,16.40
2018-02-13T02:48:52.930Z,18.10
2018-02-13T02:51:21.256Z,19.40
2018-02-13T02:53:49.557Z,20.67
2018-02-13T02:56:17.842Z,20.13
2018-02-13T02:58:46.138Z,24.07
2018-02-13T03:01:14.440Z,23.53
2018-02-13T03:03:42.738Z,23.57
2018-02-13T03:06:11.107Z,23.23
2018-02-13T03:08:39.436Z,23.80
2018-02-13T03:11:07.741Z,24.00
2018-02-13T03:13:36.055Z,24.20
2018-02-13T03:16:04.356Z,24.17
2018-02-13T03:18:32.645Z,24.00
2018-02-13T03:21:00.938Z,24.37
2018-02-13T03:23:29.259Z,25.33
2018-02-13T03:25:57.569Z,23.77
2018-02-13T03:28:25.858Z,24.07
2018-02-13T03:30:54.161Z,23.27
2018-02-13T03:33:22.456Z,23.90
2018-02-13T03:35:50.756Z,23.37
2018-02-13T03:38:19.075Z,22.87
2018-02-13T03:40:47.377Z,21.90
2018-02-13T03:43:15.684Z,22.23
2018-02-13T03:45:43.992Z,24.67
2018-02-13T03:48:12.282Z,23.67
2018-02-13T03:50:40.575Z,24.80
2018-02-13T03:53:08.934Z,21.30
2018-02-13T03:55:37.368Z,21.33
2018-02-13T03:58:05.674Z,23.67
2018-02-13T04:00:33.964Z,21.80
2018-02-13T04:03:02.273Z,21.37
2018-02-13T04:05:30.580Z,21.23
2018-02-13T04:07:58.871Z,21.57
2018-02-13T04:10:27.163Z,21.33
2018-02-13T04:12:55.451Z,20.07
2018-02-13T04:15:23.749Z,20.47
2018-02-13T04:17:52.066Z,22.43
2018-02-13T04:20:20.392Z,20.40
2018-02-13T04:22:48.692Z,19.77
2018-02-13T04:25:16.985Z,19.70
2018-02-13T04:27:45.269Z,21.67
2018-02-13T04:30:13.558Z,20.70
2018-02-13T04:32:41.876Z,23.80
2018-02-13T04:35:10.165Z,24.47
2018-02-13T04:37:38.496Z,28.07
2018-02-13T04:40:06.801Z,28.03
2018-02-13T04:42:35.096Z,26.23
2018-02-13T04:45:03.381Z,24.93
2018-02-13T04:47:31.680Z,23.20
2018-02-13T04:49:59.992Z,28.10
2018-02-13T04:52:28.287Z,22.57
2018-02-13T04:54:56.580Z,23.27
2018-02-13T04:57:24.875Z,22.77
2018-02-13T04:59:53.171Z,21.30
2018-02-13T05:02:21.492Z,22.37
2018-02-13T05:04:49.781Z,21.80
2018-02-13T05:07:18.083Z,23.53
2018-02-13T05:09:46.407Z,20.27
2018-02-13T05:12:14.693Z,19.03
2018-02-13T05:14:43.004Z,22.43
2018-02-13T05:17:11.318Z,20.97
2018-02-13T05:19:39.676Z,20.23
2018-02-13T05:22:08.140Z,20.17
2018-02-13T05:24:36.444Z,21.20
2018-02-13T05:27:04.753Z,17.43
2018-02-13T05:29:33.047Z,16.83
2018-02-13T05:32:01.368Z,16.37
2018-02-13T05:34:29.665Z,18.10
2018-02-13T05:36:57.953Z,16.97
2018-02-13T05:39:26.257Z,17.60
2018-02-13T05:41:54.549Z,15.67
2018-02-13T05:44:22.839Z,16.10
2018-02-13T05:46:51.127Z,15.43
2018-02-13T05:49:19.444Z,15.60
2018-02-13T05:51:47.755Z,15.10
2018-02-13T05:54:16.051Z,15.33
2018-02-13T05:56:44.365Z,16.40
2018-02-13T05:59:12.666Z,15.57
2018-02-13T06:01:40.955Z,14.27
2018-02-13T06:04:09.290Z,15.53
2018-02-13T06:06:37.591Z,14.40
2018-02-13T06:09:05.642Z,13.93
2018-02-13T06:11:33.947Z,14.60
2018-02-13T06:14:02.238Z,13.20
2018-02-13T06:16:30.531Z,13.20
2018-02-13T06:18:58.839Z,14.10
2018-02-13T06:21:27.178Z,15.63
2018-02-13T06:23:55.486Z,15.27
2018-02-13T06:26:23.789Z,15.93
2018-02-13T06:28:52.084Z,18.80
2018-02-13T06:31:20.385Z,19.07
2018-02-13T06:33:48.669Z,20.33
2018-02-13T06:36:16.970Z,22.67
2018-02-13T06:38:45.294Z,21.00
2018-02-13T06:41:13.598Z,20.63
2018-02-13T06:43:41.908Z,19.40
2018-02-13T06:46:10.245Z,16.80
2018-02-13T06:48:38.568Z,19.00
2018-02-13T06:51:06.877Z,17.53
2018-02-13T06:53:35.204Z,17.57
2018-02-13T06:56:03.512Z,17.13
2018-02-13T06:58:31.810Z,16.47
2018-02-13T07:01:00.158Z,17.53
2018-02-13T07:03:28.474Z,16.47
2018-02-13T07:05:56.864Z,15.30
2018-02-13T07:08:25.173Z,15.80
2018-02-13T07:10:53.283Z,16.07
2018-02-13T07:13:21.579Z,17.20
2018-02-13T07:15:49.890Z,16.30
2018-02-13T07:18:18.207Z,15.00
2018-02-13T07:20:46.506Z,15.30
2018-02-13T07:23:14.800Z,14.13
2018-02-13T07:25:43.131Z,14.53
2018-02-13T07:28:11.425Z,14.93
2018-02-13T07:30:39.724Z,15.13
2018-02-13T07:33:08.024Z,15.97
2018-02-13T07:35:36.337Z,15.67
2018-02-13T07:38:04.657Z,14.70
2018-02-13T07:40:32.963Z,14.13
2018-02-13T07:43:01.273Z,13.73
2018-02-13T07:45:29.395Z,14.67
2018-02-13T07:47:57.708Z,14.43
2018-02-13T07:50:26.006Z,13.20
2018-02-13T07:52:54.309Z,13.43
2018-02-13T07:55:22.616Z,13.07
2018-02-13T07:57:50.731Z,12.77
2018-02-13T08:00:19.188Z,13.30
2018-02-13T08:02:47.491Z,12.77
2018-02-13T08:05:15.798Z,13.53
2018-02-13T08:07:44.133Z,13.27
2018-02-13T08:10:12.639Z,13.90
2018-02-13T08:12:40.943Z,12.67
2018-02-13T08:15:09.248Z,12.77
2018-02-13T08:17:37.541Z,13.27
2018-02-13T08:20:05.838Z,13.60
2018-02-13T08:22:34.146Z,12.43
2018-02-13T08:25:02.455Z,12.50
2018-02-13T08:27:30.758Z,12.77
2018-02-13T08:29:59.058Z,13.00
2018-02-13T08:32:27.351Z,13.00
2018-02-13T08:34:55.659Z,14.20
2018-02-13T08:37:24.024Z,13.97
2018-02-13T08:39:53.342Z,13.03
2018-02-13T08:42:21.638Z,13.53
2018-02-13T08:44:49.939Z,13.17
2018-02-13T08:47:18.233Z,13.00
2018-02-13T08:49:46.518Z,14.80
2018-02-13T08:52:14.828Z,14.50
2018-02-13T08:54:43.127Z,14.47
2018-02-13T08:57:11.419Z,15.13
2018-02-13T08:59:39.731Z,13.67
2018-02-13T09:02:08.027Z,15.07
2018-02-13T09:04:36.323Z,14.53
2018-02-13T09:07:04.635Z,15.57
2018-02-13T09:09:32.871Z,15.20
2018-02-13T09:12:01.158Z,16.40
2018-02-13T09:14:29.454Z,15.83
2018-02-13T09:16:57.754Z,17.40
2018-02-13T09:19:26.064Z,17.10
2018-02-13T09:21:54.388Z,17.97
2018-02-13T09:24:22.669Z,18.40
2018-02-13T09:26:50.977Z,17.23
2018-02-13T09:29:19.300Z,17.20
2018-02-13T09:31:47.620Z,15.10
2018-02-13T09:34:15.965Z,17.50
2018-02-13T09:36:44.434Z,16.73
2018-02-13T09:39:12.740Z,17.07
2018-02-13T09:41:41.080Z,16.87
2018-02-13T09:44:09.386Z,17.10
2018-02-13T09:46:37.693Z,16.13
2018-02-13T09:49:05.993Z,17.23
2018-02-13T09:51:34.300Z,15.40
2018-02-13T09:54:02.601Z,16.03
2018-02-13T09:56:30.923Z,15.50
2018-02-13T09:58:59.236Z,15.90
2018-02-13T10:01:27.537Z,15.77
2018-02-13T10:03:55.831Z,15.03
2018-02-13T10:06:24.151Z,16.00
2018-02-13T10:08:52.535Z,15.33
2018-02-13T10:11:20.849Z,14.80
2018-02-13T10:13:49.145Z,14.87
2018-02-13T10:16:17.441Z,14.90
2018-02-13T10:18:45.749Z,14.70
2018-02-13T10:21:13.857Z,16.57
2018-02-13T10:23:41.990Z,16.70
2018-02-13T10:26:10.299Z,15.30
2018-02-13T10:28:38.610Z,15.70
2018-02-13T10:31:06.928Z,15.77
2018-02-13T10:33:35.235Z,14.33
2018-02-13T10:36:03.597Z,15.70
2018-02-13T10:38:31.917Z,15.60
2018-02-13T10:41:00.385Z,16.07
2018-02-13T10:43:28.691Z,16.83
2018-02-13T10:45:56.974Z,24.07
2018-02-13T10:48:25.301Z,20.53
2018-02-13T10:50:53.595Z,23.23
2018-02-13T10:53:21.902Z,23.70
2018-02-13T10:55:50.220Z,25.13
2018-02-13T10:58:18.509Z,22.43
2018-02-13T11:00:52.234Z,25.40
2018-02-13T11:03:20.534Z,23.50
2018-02-13T11:05:48.846Z,24.73
2018-02-13T11:08:17.151Z,23.43
2018-02-13T11:10:45.464Z,24.17
2018-02-13T11:13:13.770Z,22.53
2018-02-13T11:15:42.080Z,22.47
2018-02-13T11:18:10.374Z,22.83
2018-02-13T11:20:38.673Z,21.50
2018-02-13T11:23:06.958Z,21.90
2018-02-13T11:25:35.281Z,21.27
2018-02-13T11:28:03.566Z,22.43
2018-02-13T11:30:31.862Z,20.57
2018-02-13T11:33:00.189Z,21.13
2018-02-13T11:35:28.508Z,19.63
2018-02-13T11:37:56.800Z,20.67
2018-02-13T11:40:25.098Z,21.63
2018-02-13T11:42:53.393Z,20.47
2018-02-13T11:45:21.683Z,20.27
2018-02-13T11:47:50.017Z,19.27
2018-02-13T11:50:18.306Z,19.50
2018-02-13T11:52:46.618Z,19.60
2018-02-13T11:55:14.915Z,19.43
2018-02-13T11:57:43.238Z,20.63
2018-02-13T12:00:11.553Z,19.07
2018-02-13T12:02:39.834Z,18.60
2018-02-13T12:05:08.141Z,18.73
2018-02-13T12:07:36.488Z,17.23
2018-02-13T12:10:04.799Z,17.90
2018-02-13T12:12:33.119Z,18.07
2018-02-13T12:15:01.421Z,17.47
2018-02-13T12:17:29.726Z,18.00
2018-02-13T12:19:58.040Z,17.33
2018-02-13T12:22:26.325Z,17.00
2018-02-13T12:24:54.624Z,16.93
2018-02-13T12:27:22.939Z,17.10
2018-02-13T12:29:51.260Z,16.87
2018-02-13T12:32:19.570Z,16.17
2018-02-13T12:34:47.918Z,16.70
2018-02-13T12:37:16.407Z,17.60
2018-02-13T12:39:44.705Z,16.97
2018-02-13T12:42:13.012Z,16.63
2018-02-13T12:44:41.301Z,18.07
2018-02-13T12:47:09.613Z,17.17
2018-02-13T12:49:38.707Z,16.23
2018-02-13T12:52:07.007Z,17.07
2018-02-13T12:54:35.302Z,17.10
2018-02-13T12:57:03.604Z,16.87
2018-02-13T12:59:31.900Z,21.17
2018-02-13T13:02:00.195Z,28.23
2018-02-13T13:04:28.301Z,25.77
2018-02-13T13:06:56.593Z,20.53
2018-02-13T13:09:24.910Z,20.47
2018-02-13T13:11:53.212Z,19.17
2018-02-13T13:14:21.507Z,17.90
2018-02-13T13:16:49.834Z,18.20
2018-02-13T13:19:18.155Z,18.07
2018-02-13T13:21:46.456Z,19.27
2018-02-13T13:24:14.755Z,22.67
2018-02-13T13:26:43.076Z,19.07
2018-02-13T13:29:11.361Z,18.27
2018-02-13T13:31:39.456Z,18.77
2018-02-13T13:34:07.753Z,19.03
2018-02-13T13:36:36.209Z,19.17
2018-02-13T13:39:03.882Z,17.90
2018-02-13T13:41:32.322Z,17.90
2018-02-13T13:44:00.633Z,17.00
2018-02-13T13:46:28.944Z,17.10
2018-02-13T13:48:57.226Z,17.20
2018-02-13T13:51:25.549Z,17.03
2018-02-13T13:53:53.888Z,17.63
2018-02-13T13:56:22.202Z,16.40
2018-02-13T13:58:50.578Z,17.47
2018-02-13T14:01:18.947Z,16.57
2018-02-13T14:03:47.275Z,16.27
2018-02-13T14:06:15.577Z,15.93
2018-02-13T14:08:43.906Z,16.30
2018-02-13T15:16:26.020Z,15.03
2018-02-13T15:18:54.131Z,13.87
2018-02-13T15:21:22.459Z,14.93
2018-02-13T15:23:50.757Z,14.10
2018-02-13T15:26:19.053Z,14.87
2018-02-13T15:28:47.362Z,15.83
2018-02-13T15:31:15.668Z,15.27
2018-02-13T15:33:43.826Z,13.27
2018-02-13T15:36:12.124Z,15.70
2018-02-13T15:38:40.410Z,14.17
2018-02-13T15:41:08.725Z,14.53
2018-02-13T15:43:36.807Z,14.10
2018-02-13T15:46:05.143Z,24.93
2018-02-13T15:48:33.486Z,24.10
2018-02-13T15:51:01.781Z,24.93
2018-02-13T15:53:30.081Z,25.23
2018-02-13T15:55:58.383Z,12.43
2018-02-13T15:58:26.670Z,9.93
2018-02-13T16:00:54.976Z,11.47
2018-02-13T16:03:23.982Z,11.07
2018-02-13T16:05:52.281Z,9.07
2018-02-13T16:08:20.619Z,9.23
2018-02-13T16:13:38.051Z,9.03
2018-02-13T16:16:06.128Z,11.43
2018-02-13T16:18:34.437Z,14.83
2018-02-13T16:21:02.752Z,10.60
2018-02-13T16:23:31.054Z,12.00
2018-02-13T16:25:59.373Z,12.30
2018-02-13T16:28:27.678Z,11.87
2018-02-13T16:30:55.954Z,11.63
2018-02-13T16:33:24.268Z,14.20
2018-02-13T16:35:52.576Z,12.60
2018-02-13T16:38:20.874Z,12.00
2018-02-13T16:40:49.162Z,13.27
2018-02-13T16:43:17.468Z,12.47
2018-02-13T16:45:45.784Z,13.30
2018-02-13T16:48:14.070Z,12.23
2018-02-13T16:50:42.395Z,11.27
2018-02-13T16:53:10.708Z,11.60
2018-02-13T16:55:39.019Z,13.63
2018-02-13T16:58:07.330Z,12.70
2018-02-13T17:00:35.674Z,12.50
2018-02-13T17:03:04.008Z,13.77
2018-02-13T17:05:32.313Z,14.47
2018-02-13T17:08:00.718Z,12.80
2018-02-13T17:10:29.040Z,13.70
2018-02-13T17:12:57.337Z,13.77
2018-02-13T17:15:25.625Z,13.33
2018-02-13T17:17:53.924Z,12.67
2018-02-13T17:20:22.211Z,12.30
2018-02-13T17:22:50.521Z,12.87
2018-02-13T17:25:18.829Z,13.47
2018-02-13T17:27:47.178Z,12.20
2018-02-13T17:30:15.481Z,12.37
2018-02-13T17:32:43.796Z,12.07
2018-02-13T17:35:12.108Z,12.40
2018-02-13T17:37:40.394Z,12.10
2018-02-13T17:40:08.695Z,12.87
2018-02-13T17:42:37.021Z,12.60
2018-02-13T17:45:05.147Z,12.97
2018-02-13T17:47:33.461Z,12.57
2018-02-13T17:50:01.762Z,11.67
2018-02-13T17:52:30.074Z,13.70
2018-02-13T17:54:58.389Z,13.33
2018-02-13T17:57:26.689Z,17.33
2018-02-13T17:59:54.990Z,14.30
2018-02-13T18:02:23.155Z,13.77
2018-02-13T18:04:51.480Z,14.40
2018-02-13T18:07:19.834Z,13.77
2018-02-13T18:09:48.135Z,13.43
2018-02-13T18:12:16.456Z,12.40
2018-02-13T18:14:44.938Z,14.57
2018-02-13T18:17:13.314Z,13.40
2018-02-13T18:19:41.619Z,12.47
2018-02-13T18:22:09.926Z,13.70
2018-02-13T18:24:38.240Z,12.63
2018-02-13T18:27:06.568Z,12.70
2018-02-13T18:29:34.866Z,11.63
2018-02-13T18:32:04.075Z,12.60
2018-02-13T18:34:32.391Z,11.20
2018-02-13T18:37:00.500Z,11.43
2018-02-13T18:39:29.129Z,11.97
2018-02-13T18:41:57.423Z,11.67
2018-02-13T18:44:25.729Z,11.00
2018-02-13T18:46:54.047Z,13.43
2018-02-13T18:49:22.412Z,11.63
2018-02-13T18:51:51.783Z,11.80
2018-02-13T18:54:20.427Z,11.63
2018-02-13T18:56:49.334Z,11.57
2018-02-13T18:59:17.670Z,10.90
2018-02-13T19:01:46.035Z,11.30
2018-02-13T19:04:14.225Z,11.47
2018-02-13T19:06:42.549Z,11.63
2018-02-13T19:09:10.870Z,10.30
2018-02-13T19:11:39.273Z,11.33
2018-02-13T19:14:07.573Z,10.67
2018-02-13T19:16:35.863Z,11.23
2018-02-13T19:19:03.955Z,10.43
2018-02-13T19:21:32.241Z,10.87
2018-02-13T19:24:00.577Z,11.63
2018-02-13T19:26:28.942Z,9.73
2018-02-13T19:28:57.246Z,13.10
2018-02-13T19:31:25.559Z,10.40
2018-02-13T19:33:54.520Z,10.27
2018-02-13T19:36:23.929Z,10.87
2018-02-13T19:38:54.124Z,10.60
2018-02-13T19:41:25.264Z,9.83
2018-02-13T19:43:56.193Z,10.63
2018-02-13T19:46:25.395Z,10.23
2018-02-13T19:48:58.480Z,9.60
2018-02-13T19:51:28.822Z,9.80
2018-02-13T19:53:58.925Z,11.20
2018-02-13T19:56:29.024Z,9.57
2018-02-13T19:58:58.775Z,9.70
2018-02-13T20:01:28.416Z,10.03
2018-02-13T20:03:57.941Z,10.47
2018-02-13T20:06:27.286Z,11.47
2018-02-13T20:08:57.796Z,10.57
2018-02-13T20:11:27.260Z,11.53
2018-02-13T20:13:56.879Z,11.17
2018-02-13T20:16:26.944Z,12.07
2018-02-13T20:18:57.065Z,11.57
2018-02-13T20:21:27.276Z,9.43
2018-02-13T20:23:57.414Z,11.30
2018-02-13T20:26:27.502Z,12.03
2018-02-13T20:28:56.626Z,11.50
2018-02-13T20:31:25.940Z,11.53
2018-02-13T20:33:54.689Z,11.07
2018-02-13T20:36:23.003Z,11.23
2018-02-13T20:38:51.884Z,10.90
2018-02-13T20:41:20.986Z,10.47
2018-02-13T20:43:51.177Z,12.20
2018-02-13T20:46:21.074Z,11.77
2018-02-13T20:48:51.130Z,11.77
2018-02-13T20:51:21.106Z,11.83
2018-02-13T20:53:50.534Z,11.10
2018-02-13T20:56:19.772Z,10.80
2018-02-13T20:58:48.954Z,11.57
2018-02-13T21:01:17.394Z,10.73
2018-02-13T21:03:45.674Z,10.27
2018-02-13T21:06:14.036Z,11.40
2018-02-13T21:08:42.387Z,10.10
2018-02-13T21:11:11.135Z,10.83
2018-02-13T21:13:43.462Z,11.10
2018-02-13T21:16:11.921Z,10.53
2018-02-13T21:18:40.208Z,10.17
2018-02-13T21:21:08.509Z,9.70
2018-02-13T21:23:36.849Z,9.87
2018-02-13T21:26:06.030Z,8.63
2018-02-13T21:28:35.137Z,10.43
2018-02-13T21:31:03.772Z,10.13
2018-02-13T21:33:32.088Z,10.27
2018-02-13T21:36:00.368Z,9.57
2018-02-13T21:38:29.298Z,9.37
2018-02-13T21:40:57.710Z,9.57
2018-02-13T21:43:26.237Z,11.03
2018-02-13T21:45:54.098Z,9.10
2018-02-13T21:48:22.433Z,8.73
2018-02-13T21:50:50.899Z,10.27
2018-02-13T21:53:19.229Z,8.27
2018-02-13T21:55:47.555Z,8.93
2018-02-13T21:58:15.889Z,8.57
2018-02-13T22:00:44.207Z,8.70
2018-02-13T22:03:12.521Z,9.43
2018-02-13T22:05:40.821Z,10.03
2018-02-13T22:08:09.118Z,8.17
2018-02-13T22:10:37.408Z,7.83
2018-02-13T22:13:05.752Z,8.03
2018-02-13T22:15:34.033Z,8.80
2018-02-13T22:18:02.350Z,7.90
2018-02-13T22:20:30.668Z,8.20
2018-02-13T22:22:58.998Z,8.10
2018-02-13T22:25:26.872Z,7.70
2018-02-13T22:27:55.172Z,8.03
2018-02-13T22:30:23.514Z,7.60
2018-02-13T22:32:51.809Z,7.73
2018-02-13T22:35:20.112Z,6.90
2018-02-13T22:37:48.449Z,7.33
2018-02-13T22:40:16.748Z,7.07
2018-02-13T22:42:45.027Z,7.63
2018-02-13T22:45:13.317Z,7.73
2018-02-13T22:47:41.611Z,7.57
2018-02-13T22:50:09.830Z,7.50
2018-02-13T22:52:38.232Z,7.37
2018-02-13T22:55:06.521Z,7.03
2018-02-13T22:57:34.836Z,10.33
2018-02-13T23:00:03.126Z,6.70
2018-02-13T23:02:31.429Z,8.00
2018-02-13T23:04:59.903Z,7.03
2018-02-13T23:07:28.211Z,6.90
2018-02-13T23:09:56.491Z,6.50
2018-02-13T23:12:24.770Z,7.83
2018-02-13T23:14:53.097Z,7.67
2018-02-13T23:17:21.379Z,6.67
2018-02-13T23:19:49.665Z,7.10
2018-02-13T23:22:17.959Z,7.23
2018-02-13T23:24:46.311Z,6.93
2018-02-13T23:27:14.635Z,6.67
2018-02-13T23:29:42.933Z,6.17
2018-02-13T23:32:11.235Z,6.80
2018-02-13T23:34:39.544Z,6.57
2018-02-13T23:37:07.834Z,6.63
2018-02-13T23:39:36.163Z,6.53
2018-02-13T23:42:04.438Z,6.17
2018-02-13T23:44:32.910Z,6.67
2018-02-13T23:47:01.216Z,6.00
2018-02-13T23:49:29.494Z,6.27
2018-02-13T23:51:57.802Z,5.83
2018-02-13T23:54:26.089Z,7.73
2018-02-13T23:56:54.369Z,5.87
2018-02-13T23:59:22.672Z,6.50
